sensor_id;sensor_type;location;lat;lon;timestamp;temperature;humidity
75430;DHT22;64127;51.488;5.462;2022-12-28T00:01:51;8.00;99.90
75430;DHT22;64127;51.488;5.462;2022-12-28T00:04:23;8.00;99.90
75430;DHT22;64127;51.488;5.462;2022-12-28T00:06:55;8.00;99.90
75430;DHT22;64127;51.488;5.462;2022-12-28T00:09:27;8.00;99.90
75430;DHT22;64127;51.488;5.462;2022-12-28T00:11:59;8.00;99.90
75430;DHT22;64127;51.488;5.462;2022-12-28T00:14:31;8.00;99.90
75430;DHT22;64127;51.488;5.462;2022-12-28T00:17:03;8.00;99.90
75430;DHT22;64127;51.488;5.462;2022-12-28T00:19:35;8.00;99.90
75430;DHT22;64127;51.488;5.462;2022-12-28T00:22:08;8.00;99.90
75430;DHT22;64127;51.488;5.462;2022-12-28T00:24:40;8.10;99.90
75430;DHT22;64127;51.488;5.462;2022-12-28T00:27:12;8.00;99.90
75430;DHT22;64127;51.488;5.462;2022-12-28T00:29:44;8.00;99.90
75430;DHT22;64127;51.488;5.462;2022-12-28T00:32:16;8.00;99.90
75430;DHT22;64127;51.488;5.462;2022-12-28T00:34:48;8.00;99.90
75430;DHT22;64127;51.488;5.462;2022-12-28T00:37:20;8.00;99.90
75430;DHT22;64127;51.488;5.462;2022-12-28T00:39:52;8.00;99.90
75430;DHT22;64127;51.488;5.462;2022-12-28T00:42:24;8.00;99.90
75430;DHT22;64127;51.488;5.462;2022-12-28T00:44:55;8.00;99.90
75430;DHT22;64127;51.488;5.462;2022-12-28T00:47:27;8.10;99.90
75430;DHT22;64127;51.488;5.462;2022-12-28T00:49:59;8.10;99.90
75430;DHT22;64127;51.488;5.462;2022-12-28T00:52:31;8.10;99.90
75430;DHT22;64127;51.488;5.462;2022-12-28T00:55:04;8.10;99.90
75430;DHT22;64127;51.488;5.462;2022-12-28T00:57:36;8.10;99.90
75430;DHT22;64127;51.488;5.462;2022-12-28T01:00:12;8.10;99.90
75430;DHT22;64127;51.488;5.462;2022-12-28T01:02:44;8.10;99.90
75430;DHT22;64127;51.488;5.462;2022-12-28T01:05:16;8.10;99.90
75430;DHT22;64127;51.488;5.462;2022-12-28T01:07:48;8.20;99.90
75430;DHT22;64127;51.488;5.462;2022-12-28T01:10:21;8.10;99.90
75430;DHT22;64127;51.488;5.462;2022-12-28T01:12:53;8.10;99.90
75430;DHT22;64127;51.488;5.462;2022-12-28T01:15:25;8.10;99.90
75430;DHT22;64127;51.488;5.462;2022-12-28T01:17:57;8.20;99.90
75430;DHT22;64127;51.488;5.462;2022-12-28T01:20:30;8.20;99.90
75430;DHT22;64127;51.488;5.462;2022-12-28T01:23:02;8.20;99.90
75430;DHT22;64127;51.488;5.462;2022-12-28T01:25:34;8.20;99.90
75430;DHT22;64127;51.488;5.462;2022-12-28T01:28:06;8.20;99.90
75430;DHT22;64127;51.488;5.462;2022-12-28T01:30:38;8.20;99.90
75430;DHT22;64127;51.488;5.462;2022-12-28T01:33:10;8.20;99.90
75430;DHT22;64127;51.488;5.462;2022-12-28T01:35:41;8.20;99.90
75430;DHT22;64127;51.488;5.462;2022-12-28T01:38:14;8.20;99.90
75430;DHT22;64127;51.488;5.462;2022-12-28T01:40:45;8.30;99.90
75430;DHT22;64127;51.488;5.462;2022-12-28T01:43:17;8.30;99.90
75430;DHT22;64127;51.488;5.462;2022-12-28T01:46:01;8.30;99.90
75430;DHT22;64127;51.488;5.462;2022-12-28T01:48:34;8.30;99.90
75430;DHT22;64127;51.488;5.462;2022-12-28T01:51:10;8.30;99.90
75430;DHT22;64127;51.488;5.462;2022-12-28T01:53:42;8.40;99.90
75430;DHT22;64127;51.488;5.462;2022-12-28T01:56:15;8.40;99.90
75430;DHT22;64127;51.488;5.462;2022-12-28T01:58:47;8.40;99.90
75430;DHT22;64127;51.488;5.462;2022-12-28T02:01:20;8.40;99.90
75430;DHT22;64127;51.488;5.462;2022-12-28T02:03:52;8.50;99.90
75430;DHT22;64127;51.488;5.462;2022-12-28T02:06:24;8.50;99.90
75430;DHT22;64127;51.488;5.462;2022-12-28T02:09:08;8.50;99.90
75430;DHT22;64127;51.488;5.462;2022-12-28T02:11:45;8.50;99.90
75430;DHT22;64127;51.488;5.462;2022-12-28T02:14:19;8.60;99.90
75430;DHT22;64127;51.488;5.462;2022-12-28T02:16:53;8.60;99.90
75430;DHT22;64127;51.488;5.462;2022-12-28T02:19:47;8.60;99.90
75430;DHT22;64127;51.488;5.462;2022-12-28T02:31:06;8.70;99.90
75430;DHT22;64127;51.488;5.462;2022-12-28T02:33:56;8.70;99.90
75430;DHT22;64127;51.488;5.462;2022-12-28T02:36:42;8.70;99.90
75430;DHT22;64127;51.488;5.462;2022-12-28T02:39:40;8.70;99.90
75430;DHT22;64127;51.488;5.462;2022-12-28T02:42:16;8.70;99.90
75430;DHT22;64127;51.488;5.462;2022-12-28T02:44:48;8.70;99.90
75430;DHT22;64127;51.488;5.462;2022-12-28T02:47:43;8.70;99.90
75430;DHT22;64127;51.488;5.462;2022-12-28T02:56:42;8.70;99.90
75430;DHT22;64127;51.488;5.462;2022-12-28T03:05:43;8.70;99.90
75430;DHT22;64127;51.488;5.462;2022-12-28T03:08:59;8.70;99.90
75430;DHT22;64127;51.488;5.462;2022-12-28T03:12:38;8.70;99.90
75430;DHT22;64127;51.488;5.462;2022-12-28T03:15:10;8.70;99.90
75430;DHT22;64127;51.488;5.462;2022-12-28T03:18:15;8.70;99.90
75430;DHT22;64127;51.488;5.462;2022-12-28T03:21:09;8.70;99.90
75430;DHT22;64127;51.488;5.462;2022-12-28T03:24:01;8.70;99.90
75430;DHT22;64127;51.488;5.462;2022-12-28T03:26:52;8.70;99.90
75430;DHT22;64127;51.488;5.462;2022-12-28T03:29:53;8.60;99.90
75430;DHT22;64127;51.488;5.462;2022-12-28T03:32:49;8.60;99.90
75430;DHT22;64127;51.488;5.462;2022-12-28T03:35:31;8.60;99.90
75430;DHT22;64127;51.488;5.462;2022-12-28T03:38:13;8.60;99.90
75430;DHT22;64127;51.488;5.462;2022-12-28T03:41:05;8.70;99.90
75430;DHT22;64127;51.488;5.462;2022-12-28T03:43:49;8.60;99.90
75430;DHT22;64127;51.488;5.462;2022-12-28T03:46:41;8.70;99.90
75430;DHT22;64127;51.488;5.462;2022-12-28T03:49:18;8.70;99.90
75430;DHT22;64127;51.488;5.462;2022-12-28T03:51:50;8.70;99.90
75430;DHT22;64127;51.488;5.462;2022-12-28T03:54:23;8.70;99.90
75430;DHT22;64127;51.488;5.462;2022-12-28T03:56:55;8.70;99.90
75430;DHT22;64127;51.488;5.462;2022-12-28T03:59:27;8.70;99.90
75430;DHT22;64127;51.488;5.462;2022-12-28T04:01:59;8.70;99.90
75430;DHT22;64127;51.488;5.462;2022-12-28T04:04:32;8.70;99.90
75430;DHT22;64127;51.488;5.462;2022-12-28T04:07:04;8.70;99.90
75430;DHT22;64127;51.488;5.462;2022-12-28T04:09:35;8.80;99.90
75430;DHT22;64127;51.488;5.462;2022-12-28T04:12:08;8.80;99.90
75430;DHT22;64127;51.488;5.462;2022-12-28T04:14:40;8.80;99.90
75430;DHT22;64127;51.488;5.462;2022-12-28T04:17:12;8.80;99.90
75430;DHT22;64127;51.488;5.462;2022-12-28T04:19:46;8.80;99.90
75430;DHT22;64127;51.488;5.462;2022-12-28T04:22:18;8.80;99.90
75430;DHT22;64127;51.488;5.462;2022-12-28T04:24:50;8.90;99.90
75430;DHT22;64127;51.488;5.462;2022-12-28T04:27:22;8.90;99.90
75430;DHT22;64127;51.488;5.462;2022-12-28T04:29:54;8.90;99.90
75430;DHT22;64127;51.488;5.462;2022-12-28T04:32:27;8.90;99.90
75430;DHT22;64127;51.488;5.462;2022-12-28T04:34:59;9.00;99.90
75430;DHT22;64127;51.488;5.462;2022-12-28T04:37:35;9.00;99.90
75430;DHT22;64127;51.488;5.462;2022-12-28T04:40:08;9.00;99.90
75430;DHT22;64127;51.488;5.462;2022-12-28T04:42:40;9.00;99.90
75430;DHT22;64127;51.488;5.462;2022-12-28T04:45:12;9.00;99.90
75430;DHT22;64127;51.488;5.462;2022-12-28T04:47:56;9.10;99.90
75430;DHT22;64127;51.488;5.462;2022-12-28T04:50:28;9.10;99.90
75430;DHT22;64127;51.488;5.462;2022-12-28T04:53:00;9.10;99.90
75430;DHT22;64127;51.488;5.462;2022-12-28T04:55:33;9.10;99.90
75430;DHT22;64127;51.488;5.462;2022-12-28T04:58:05;9.20;99.90
75430;DHT22;64127;51.488;5.462;2022-12-28T05:00:37;9.20;99.90
75430;DHT22;64127;51.488;5.462;2022-12-28T05:03:10;9.20;99.90
75430;DHT22;64127;51.488;5.462;2022-12-28T05:05:42;9.20;99.90
75430;DHT22;64127;51.488;5.462;2022-12-28T05:08:13;9.20;99.90
75430;DHT22;64127;51.488;5.462;2022-12-28T05:10:45;9.20;99.90
75430;DHT22;64127;51.488;5.462;2022-12-28T05:13:17;9.20;99.90
75430;DHT22;64127;51.488;5.462;2022-12-28T05:15:49;9.30;99.90
75430;DHT22;64127;51.488;5.462;2022-12-28T05:18:21;9.20;99.90
75430;DHT22;64127;51.488;5.462;2022-12-28T05:23:38;9.30;99.90
75430;DHT22;64127;51.488;5.462;2022-12-28T05:26:12;9.30;99.90
75430;DHT22;64127;51.488;5.462;2022-12-28T05:28:46;9.30;99.90
75430;DHT22;64127;51.488;5.462;2022-12-28T05:31:21;9.30;99.90
75430;DHT22;64127;51.488;5.462;2022-12-28T05:33:54;9.30;99.90
75430;DHT22;64127;51.488;5.462;2022-12-28T05:36:26;9.30;99.90
75430;DHT22;64127;51.488;5.462;2022-12-28T05:38:59;9.30;99.90
75430;DHT22;64127;51.488;5.462;2022-12-28T05:41:31;9.30;99.90
75430;DHT22;64127;51.488;5.462;2022-12-28T05:44:03;9.30;99.90
75430;DHT22;64127;51.488;5.462;2022-12-28T05:46:36;9.30;99.90
75430;DHT22;64127;51.488;5.462;2022-12-28T05:49:08;9.40;99.90
75430;DHT22;64127;51.488;5.462;2022-12-28T05:51:40;9.30;99.90
75430;DHT22;64127;51.488;5.462;2022-12-28T05:54:12;9.40;99.90
75430;DHT22;64127;51.488;5.462;2022-12-28T05:56:45;9.40;99.90
75430;DHT22;64127;51.488;5.462;2022-12-28T05:59:20;9.40;99.90
75430;DHT22;64127;51.488;5.462;2022-12-28T06:01:52;9.40;99.90
75430;DHT22;64127;51.488;5.462;2022-12-28T06:04:24;9.40;99.90
75430;DHT22;64127;51.488;5.462;2022-12-28T06:06:56;9.40;99.90
75430;DHT22;64127;51.488;5.462;2022-12-28T06:09:28;9.40;99.90
75430;DHT22;64127;51.488;5.462;2022-12-28T06:12:00;9.40;99.90
75430;DHT22;64127;51.488;5.462;2022-12-28T06:14:32;9.50;99.90
75430;DHT22;64127;51.488;5.462;2022-12-28T06:17:04;9.40;99.90
75430;DHT22;64127;51.488;5.462;2022-12-28T06:19:36;9.40;99.90
75430;DHT22;64127;51.488;5.462;2022-12-28T06:22:08;9.50;99.90
75430;DHT22;64127;51.488;5.462;2022-12-28T06:24:40;9.50;99.90
75430;DHT22;64127;51.488;5.462;2022-12-28T06:27:12;9.50;99.90
75430;DHT22;64127;51.488;5.462;2022-12-28T06:29:44;9.50;99.90
75430;DHT22;64127;51.488;5.462;2022-12-28T06:32:16;9.50;99.90
75430;DHT22;64127;51.488;5.462;2022-12-28T06:34:48;9.50;99.90
75430;DHT22;64127;51.488;5.462;2022-12-28T06:37:20;9.50;99.90
75430;DHT22;64127;51.488;5.462;2022-12-28T06:39:52;9.50;99.90
75430;DHT22;64127;51.488;5.462;2022-12-28T06:42:24;9.50;99.90
75430;DHT22;64127;51.488;5.462;2022-12-28T06:44:56;9.60;99.90
75430;DHT22;64127;51.488;5.462;2022-12-28T06:47:28;9.50;99.90
75430;DHT22;64127;51.488;5.462;2022-12-28T06:50:00;9.50;99.90
75430;DHT22;64127;51.488;5.462;2022-12-28T06:52:32;9.50;99.90
75430;DHT22;64127;51.488;5.462;2022-12-28T06:55:05;9.50;99.90
75430;DHT22;64127;51.488;5.462;2022-12-28T06:57:37;9.60;99.90
75430;DHT22;64127;51.488;5.462;2022-12-28T07:00:11;9.60;99.90
75430;DHT22;64127;51.488;5.462;2022-12-28T07:02:43;9.60;99.90
75430;DHT22;64127;51.488;5.462;2022-12-28T07:05:15;9.60;99.90
75430;DHT22;64127;51.488;5.462;2022-12-28T07:07:47;9.60;99.90
75430;DHT22;64127;51.488;5.462;2022-12-28T07:10:19;9.60;99.90
75430;DHT22;64127;51.488;5.462;2022-12-28T07:12:51;9.70;99.90
75430;DHT22;64127;51.488;5.462;2022-12-28T07:15:23;9.70;99.90
75430;DHT22;64127;51.488;5.462;2022-12-28T07:17:57;9.70;99.90
75430;DHT22;64127;51.488;5.462;2022-12-28T07:20:29;9.70;99.90
75430;DHT22;64127;51.488;5.462;2022-12-28T07:23:07;9.70;99.90
75430;DHT22;64127;51.488;5.462;2022-12-28T07:25:39;9.70;99.90
75430;DHT22;64127;51.488;5.462;2022-12-28T07:28:11;9.70;99.90
75430;DHT22;64127;51.488;5.462;2022-12-28T07:30:43;9.70;99.90
75430;DHT22;64127;51.488;5.462;2022-12-28T07:33:15;9.70;99.90
75430;DHT22;64127;51.488;5.462;2022-12-28T07:35:47;9.70;99.90
75430;DHT22;64127;51.488;5.462;2022-12-28T07:38:19;9.70;99.90
75430;DHT22;64127;51.488;5.462;2022-12-28T07:40:52;9.70;99.90
75430;DHT22;64127;51.488;5.462;2022-12-28T07:43:24;9.80;99.90
75430;DHT22;64127;51.488;5.462;2022-12-28T07:46:10;9.80;99.90
75430;DHT22;64127;51.488;5.462;2022-12-28T07:48:51;9.80;99.90
75430;DHT22;64127;51.488;5.462;2022-12-28T07:51:30;9.80;99.90
75430;DHT22;64127;51.488;5.462;2022-12-28T07:54:06;9.80;99.90
75430;DHT22;64127;51.488;5.462;2022-12-28T07:56:38;9.80;99.90
75430;DHT22;64127;51.488;5.462;2022-12-28T07:59:10;9.80;99.90
75430;DHT22;64127;51.488;5.462;2022-12-28T08:01:44;9.80;99.90
75430;DHT22;64127;51.488;5.462;2022-12-28T08:04:16;9.80;99.90
75430;DHT22;64127;51.488;5.462;2022-12-28T08:06:49;9.80;99.90
75430;DHT22;64127;51.488;5.462;2022-12-28T08:09:21;9.80;99.90
75430;DHT22;64127;51.488;5.462;2022-12-28T08:11:53;9.80;99.90
75430;DHT22;64127;51.488;5.462;2022-12-28T08:14:25;9.80;99.90
75430;DHT22;64127;51.488;5.462;2022-12-28T08:16:57;9.90;99.90
75430;DHT22;64127;51.488;5.462;2022-12-28T08:19:29;9.90;99.90
75430;DHT22;64127;51.488;5.462;2022-12-28T08:22:01;9.90;99.90
75430;DHT22;64127;51.488;5.462;2022-12-28T08:24:33;9.90;99.90
75430;DHT22;64127;51.488;5.462;2022-12-28T08:27:06;9.90;99.90
75430;DHT22;64127;51.488;5.462;2022-12-28T08:29:38;9.90;99.90
75430;DHT22;64127;51.488;5.462;2022-12-28T08:32:10;9.90;99.90
75430;DHT22;64127;51.488;5.462;2022-12-28T08:34:42;9.90;99.90
75430;DHT22;64127;51.488;5.462;2022-12-28T08:37:14;9.90;99.90
75430;DHT22;64127;51.488;5.462;2022-12-28T08:39:46;9.90;99.90
75430;DHT22;64127;51.488;5.462;2022-12-28T08:42:18;9.90;99.90
75430;DHT22;64127;51.488;5.462;2022-12-28T08:44:50;9.90;99.90
75430;DHT22;64127;51.488;5.462;2022-12-28T08:47:22;9.90;99.90
75430;DHT22;64127;51.488;5.462;2022-12-28T08:49:53;9.90;99.90
75430;DHT22;64127;51.488;5.462;2022-12-28T08:52:25;9.90;99.90
75430;DHT22;64127;51.488;5.462;2022-12-28T08:54:58;10.00;99.90
75430;DHT22;64127;51.488;5.462;2022-12-28T08:57:31;10.00;99.90
75430;DHT22;64127;51.488;5.462;2022-12-28T09:00:04;10.00;99.90
75430;DHT22;64127;51.488;5.462;2022-12-28T09:02:37;10.00;99.90
75430;DHT22;64127;51.488;5.462;2022-12-28T09:05:09;10.00;99.90
75430;DHT22;64127;51.488;5.462;2022-12-28T09:07:41;10.00;99.90
75430;DHT22;64127;51.488;5.462;2022-12-28T09:10:13;10.00;99.90
75430;DHT22;64127;51.488;5.462;2022-12-28T09:12:45;10.00;99.90
75430;DHT22;64127;51.488;5.462;2022-12-28T09:15:17;10.00;99.90
75430;DHT22;64127;51.488;5.462;2022-12-28T09:17:49;10.00;99.90
75430;DHT22;64127;51.488;5.462;2022-12-28T09:20:21;10.00;99.90
75430;DHT22;64127;51.488;5.462;2022-12-28T09:22:53;10.00;99.90
75430;DHT22;64127;51.488;5.462;2022-12-28T09:25:25;10.10;99.90
75430;DHT22;64127;51.488;5.462;2022-12-28T09:27:57;10.00;99.90
75430;DHT22;64127;51.488;5.462;2022-12-28T09:30:30;10.00;99.90
75430;DHT22;64127;51.488;5.462;2022-12-28T09:33:02;10.10;99.90
75430;DHT22;64127;51.488;5.462;2022-12-28T09:35:57;10.10;99.90
75430;DHT22;64127;51.488;5.462;2022-12-28T09:38:30;10.10;99.90
75430;DHT22;64127;51.488;5.462;2022-12-28T09:41:10;10.10;99.90
75430;DHT22;64127;51.488;5.462;2022-12-28T09:43:43;10.10;99.90
75430;DHT22;64127;51.488;5.462;2022-12-28T09:46:17;10.10;99.90
75430;DHT22;64127;51.488;5.462;2022-12-28T09:48:54;10.10;99.90
75430;DHT22;64127;51.488;5.462;2022-12-28T09:51:37;10.20;99.90
75430;DHT22;64127;51.488;5.462;2022-12-28T09:54:14;10.20;99.90
75430;DHT22;64127;51.488;5.462;2022-12-28T09:56:47;10.20;99.90
75430;DHT22;64127;51.488;5.462;2022-12-28T09:59:21;10.20;99.90
75430;DHT22;64127;51.488;5.462;2022-12-28T10:01:59;10.20;99.90
75430;DHT22;64127;51.488;5.462;2022-12-28T10:04:34;10.20;99.90
75430;DHT22;64127;51.488;5.462;2022-12-28T10:07:09;10.30;99.90
75430;DHT22;64127;51.488;5.462;2022-12-28T10:09:42;10.30;99.90
75430;DHT22;64127;51.488;5.462;2022-12-28T10:12:20;10.20;99.90
75430;DHT22;64127;51.488;5.462;2022-12-28T10:14:55;10.20;99.90
75430;DHT22;64127;51.488;5.462;2022-12-28T10:17:29;10.30;99.90
75430;DHT22;64127;51.488;5.462;2022-12-28T10:20:01;10.30;99.90
75430;DHT22;64127;51.488;5.462;2022-12-28T10:22:37;10.30;99.90
75430;DHT22;64127;51.488;5.462;2022-12-28T10:25:24;10.20;99.90
75430;DHT22;64127;51.488;5.462;2022-12-28T10:27:58;10.30;99.90
75430;DHT22;64127;51.488;5.462;2022-12-28T10:30:31;10.30;99.90
75430;DHT22;64127;51.488;5.462;2022-12-28T10:33:03;10.30;99.90
75430;DHT22;64127;51.488;5.462;2022-12-28T10:35:47;10.30;99.90
75430;DHT22;64127;51.488;5.462;2022-12-28T10:38:29;10.30;99.90
75430;DHT22;64127;51.488;5.462;2022-12-28T10:41:10;10.30;99.90
75430;DHT22;64127;51.488;5.462;2022-12-28T10:43:50;10.30;99.90
75430;DHT22;64127;51.488;5.462;2022-12-28T10:47:15;10.30;99.90
75430;DHT22;64127;51.488;5.462;2022-12-28T10:49:53;10.30;99.90
75430;DHT22;64127;51.488;5.462;2022-12-28T10:52:55;10.30;99.90
75430;DHT22;64127;51.488;5.462;2022-12-28T10:55:31;10.30;99.90
75430;DHT22;64127;51.488;5.462;2022-12-28T10:58:22;10.30;99.90
75430;DHT22;64127;51.488;5.462;2022-12-28T11:06:32;10.30;99.90
75430;DHT22;64127;51.488;5.462;2022-12-28T11:09:23;10.30;99.90
75430;DHT22;64127;51.488;5.462;2022-12-28T11:12:20;10.30;99.90
75430;DHT22;64127;51.488;5.462;2022-12-28T11:14:54;10.40;99.90
75430;DHT22;64127;51.488;5.462;2022-12-28T11:17:28;10.40;99.90
75430;DHT22;64127;51.488;5.462;2022-12-28T11:20:17;10.40;99.90
75430;DHT22;64127;51.488;5.462;2022-12-28T11:22:51;10.40;99.90
75430;DHT22;64127;51.488;5.462;2022-12-28T11:25:34;10.40;99.90
75430;DHT22;64127;51.488;5.462;2022-12-28T11:28:16;10.40;99.90
75430;DHT22;64127;51.488;5.462;2022-12-28T11:30:53;10.40;99.90
75430;DHT22;64127;51.488;5.462;2022-12-28T11:33:39;10.40;99.90
75430;DHT22;64127;51.488;5.462;2022-12-28T11:36:14;10.40;99.90
75430;DHT22;64127;51.488;5.462;2022-12-28T11:38:50;10.50;99.90
75430;DHT22;64127;51.488;5.462;2022-12-28T11:44:04;10.50;99.90
75430;DHT22;64127;51.488;5.462;2022-12-28T11:46:38;10.60;99.90
75430;DHT22;64127;51.488;5.462;2022-12-28T11:49:29;10.60;99.90
75430;DHT22;64127;51.488;5.462;2022-12-28T11:57:56;10.60;99.90
75430;DHT22;64127;51.488;5.462;2022-12-28T12:03:09;10.60;99.90
75430;DHT22;64127;51.488;5.462;2022-12-28T12:10:48;10.60;99.90
75430;DHT22;64127;51.488;5.462;2022-12-28T12:13:50;10.60;99.90
75430;DHT22;64127;51.488;5.462;2022-12-28T12:16:32;10.60;99.90
75430;DHT22;64127;51.488;5.462;2022-12-28T12:19:24;10.60;99.90
75430;DHT22;64127;51.488;5.462;2022-12-28T12:24:36;10.60;99.90
75430;DHT22;64127;51.488;5.462;2022-12-28T12:27:40;10.60;99.90
75430;DHT22;64127;51.488;5.462;2022-12-28T12:30:24;10.60;99.90
75430;DHT22;64127;51.488;5.462;2022-12-28T12:35:55;10.60;99.90
75430;DHT22;64127;51.488;5.462;2022-12-28T12:44:32;10.70;99.90
75430;DHT22;64127;51.488;5.462;2022-12-28T12:59:48;10.70;99.90
75430;DHT22;64127;51.488;5.462;2022-12-28T13:05:20;10.80;99.90
75430;DHT22;64127;51.488;5.462;2022-12-28T13:07:56;10.70;99.90
75430;DHT22;64127;51.488;5.462;2022-12-28T13:10:36;10.80;99.90
75430;DHT22;64127;51.488;5.462;2022-12-28T13:13:35;10.80;99.90
75430;DHT22;64127;51.488;5.462;2022-12-28T13:16:13;10.80;99.90
75430;DHT22;64127;51.488;5.462;2022-12-28T13:19:02;10.80;99.90
75430;DHT22;64127;51.488;5.462;2022-12-28T13:21:42;10.80;99.90
75430;DHT22;64127;51.488;5.462;2022-12-28T13:24:26;10.80;99.90
75430;DHT22;64127;51.488;5.462;2022-12-28T13:27:01;10.80;99.90
75430;DHT22;64127;51.488;5.462;2022-12-28T13:29:41;10.80;99.90
75430;DHT22;64127;51.488;5.462;2022-12-28T13:32:31;10.80;99.90
75430;DHT22;64127;51.488;5.462;2022-12-28T13:35:17;10.80;99.90
75430;DHT22;64127;51.488;5.462;2022-12-28T13:38:17;10.80;99.90
75430;DHT22;64127;51.488;5.462;2022-12-28T13:40:52;10.90;99.90
75430;DHT22;64127;51.488;5.462;2022-12-28T13:46:01;10.90;99.90
75430;DHT22;64127;51.488;5.462;2022-12-28T13:48:42;10.90;99.90
75430;DHT22;64127;51.488;5.462;2022-12-28T13:51:19;10.90;99.90
75430;DHT22;64127;51.488;5.462;2022-12-28T13:53:57;10.90;99.90
75430;DHT22;64127;51.488;5.462;2022-12-28T13:56:32;10.90;99.90
75430;DHT22;64127;51.488;5.462;2022-12-28T13:59:09;10.90;99.90
75430;DHT22;64127;51.488;5.462;2022-12-28T14:01:47;11.00;99.90
75430;DHT22;64127;51.488;5.462;2022-12-28T14:04:23;11.00;99.90
75430;DHT22;64127;51.488;5.462;2022-12-28T14:07:17;11.00;99.90
75430;DHT22;64127;51.488;5.462;2022-12-28T14:09:50;11.00;99.90
75430;DHT22;64127;51.488;5.462;2022-12-28T14:12:23;11.00;99.90
75430;DHT22;64127;51.488;5.462;2022-12-28T14:14:57;11.10;99.90
75430;DHT22;64127;51.488;5.462;2022-12-28T14:17:29;11.10;99.90
75430;DHT22;64127;51.488;5.462;2022-12-28T14:20:02;11.10;99.90
75430;DHT22;64127;51.488;5.462;2022-12-28T14:22:37;11.10;99.90
75430;DHT22;64127;51.488;5.462;2022-12-28T14:25:13;11.10;99.90
75430;DHT22;64127;51.488;5.462;2022-12-28T14:27:59;11.10;99.90
75430;DHT22;64127;51.488;5.462;2022-12-28T14:30:40;11.20;99.90
75430;DHT22;64127;51.488;5.462;2022-12-28T14:33:19;11.20;99.90
75430;DHT22;64127;51.488;5.462;2022-12-28T14:35:58;11.20;99.90
75430;DHT22;64127;51.488;5.462;2022-12-28T14:38:39;11.30;99.90
75430;DHT22;64127;51.488;5.462;2022-12-28T14:41:31;11.30;99.90
75430;DHT22;64127;51.488;5.462;2022-12-28T14:44:24;11.30;99.90
75430;DHT22;64127;51.488;5.462;2022-12-28T14:46:59;11.30;99.90
75430;DHT22;64127;51.488;5.462;2022-12-28T14:49:34;11.30;99.90
75430;DHT22;64127;51.488;5.462;2022-12-28T14:57:34;11.30;99.90
75430;DHT22;64127;51.488;5.462;2022-12-28T15:02:56;11.30;99.90
75430;DHT22;64127;51.488;5.462;2022-12-28T15:05:49;11.30;99.90
75430;DHT22;64127;51.488;5.462;2022-12-28T15:08:22;11.30;99.90
75430;DHT22;64127;51.488;5.462;2022-12-28T15:10:58;11.30;99.90
75430;DHT22;64127;51.488;5.462;2022-12-28T15:13:31;11.30;99.90
75430;DHT22;64127;51.488;5.462;2022-12-28T15:16:03;11.30;99.90
75430;DHT22;64127;51.488;5.462;2022-12-28T15:18:38;11.30;99.90
75430;DHT22;64127;51.488;5.462;2022-12-28T15:21:21;11.30;99.90
75430;DHT22;64127;51.488;5.462;2022-12-28T15:23:55;11.30;99.90
75430;DHT22;64127;51.488;5.462;2022-12-28T15:26:27;11.30;99.90
75430;DHT22;64127;51.488;5.462;2022-12-28T15:29:03;11.30;99.90
75430;DHT22;64127;51.488;5.462;2022-12-28T15:31:36;11.30;99.90
75430;DHT22;64127;51.488;5.462;2022-12-28T15:34:08;11.30;99.90
75430;DHT22;64127;51.488;5.462;2022-12-28T15:36:40;11.30;99.90
75430;DHT22;64127;51.488;5.462;2022-12-28T15:39:16;11.30;99.90
75430;DHT22;64127;51.488;5.462;2022-12-28T15:41:48;11.30;99.90
75430;DHT22;64127;51.488;5.462;2022-12-28T15:44:20;11.30;99.90
75430;DHT22;64127;51.488;5.462;2022-12-28T15:46:52;11.30;99.90
75430;DHT22;64127;51.488;5.462;2022-12-28T15:49:24;11.30;99.90
75430;DHT22;64127;51.488;5.462;2022-12-28T15:51:57;11.30;99.90
75430;DHT22;64127;51.488;5.462;2022-12-28T15:54:30;11.30;99.90
75430;DHT22;64127;51.488;5.462;2022-12-28T15:57:02;11.30;99.90
75430;DHT22;64127;51.488;5.462;2022-12-28T15:59:34;11.30;99.90
75430;DHT22;64127;51.488;5.462;2022-12-28T16:02:09;11.30;99.90
75430;DHT22;64127;51.488;5.462;2022-12-28T16:04:42;11.20;99.90
75430;DHT22;64127;51.488;5.462;2022-12-28T16:07:14;11.30;99.90
75430;DHT22;64127;51.488;5.462;2022-12-28T16:09:47;11.20;99.90
75430;DHT22;64127;51.488;5.462;2022-12-28T16:12:19;11.20;99.90
75430;DHT22;64127;51.488;5.462;2022-12-28T16:14:51;11.20;99.90
75430;DHT22;64127;51.488;5.462;2022-12-28T16:17:23;11.20;99.90
75430;DHT22;64127;51.488;5.462;2022-12-28T16:19:55;11.20;99.90
75430;DHT22;64127;51.488;5.462;2022-12-28T16:22:27;11.20;99.90
75430;DHT22;64127;51.488;5.462;2022-12-28T16:24:59;11.10;99.90
75430;DHT22;64127;51.488;5.462;2022-12-28T16:27:32;11.10;99.90
75430;DHT22;64127;51.488;5.462;2022-12-28T16:30:04;11.10;99.90
75430;DHT22;64127;51.488;5.462;2022-12-28T16:32:37;11.10;99.90
75430;DHT22;64127;51.488;5.462;2022-12-28T16:35:09;11.10;99.90
75430;DHT22;64127;51.488;5.462;2022-12-28T16:37:41;11.10;99.90
75430;DHT22;64127;51.488;5.462;2022-12-28T16:40:13;11.10;99.90
75430;DHT22;64127;51.488;5.462;2022-12-28T16:42:45;11.00;99.90
75430;DHT22;64127;51.488;5.462;2022-12-28T16:45:18;11.00;99.90
75430;DHT22;64127;51.488;5.462;2022-12-28T16:47:49;11.00;99.90
75430;DHT22;64127;51.488;5.462;2022-12-28T16:50:22;11.00;99.90
75430;DHT22;64127;51.488;5.462;2022-12-28T16:52:54;11.00;99.90
75430;DHT22;64127;51.488;5.462;2022-12-28T16:55:27;11.00;99.90
75430;DHT22;64127;51.488;5.462;2022-12-28T16:57:59;11.00;99.90
75430;DHT22;64127;51.488;5.462;2022-12-28T17:00:31;11.00;99.90
75430;DHT22;64127;51.488;5.462;2022-12-28T17:03:03;11.00;99.90
75430;DHT22;64127;51.488;5.462;2022-12-28T17:05:36;11.00;99.90
75430;DHT22;64127;51.488;5.462;2022-12-28T17:08:08;11.00;99.90
75430;DHT22;64127;51.488;5.462;2022-12-28T17:10:41;11.00;99.90
75430;DHT22;64127;51.488;5.462;2022-12-28T17:13:13;10.90;99.90
75430;DHT22;64127;51.488;5.462;2022-12-28T17:15:46;11.00;99.90
75430;DHT22;64127;51.488;5.462;2022-12-28T17:18:19;10.90;99.90
75430;DHT22;64127;51.488;5.462;2022-12-28T17:20:51;10.90;99.90
75430;DHT22;64127;51.488;5.462;2022-12-28T17:23:23;10.90;99.90
75430;DHT22;64127;51.488;5.462;2022-12-28T17:25:55;10.90;99.90
75430;DHT22;64127;51.488;5.462;2022-12-28T17:28:27;10.90;99.90
75430;DHT22;64127;51.488;5.462;2022-12-28T17:31:09;10.90;99.90
75430;DHT22;64127;51.488;5.462;2022-12-28T17:33:46;10.90;99.90
75430;DHT22;64127;51.488;5.462;2022-12-28T17:36:20;10.90;99.90
75430;DHT22;64127;51.488;5.462;2022-12-28T17:38:52;10.90;99.90
75430;DHT22;64127;51.488;5.462;2022-12-28T17:41:25;10.90;99.90
75430;DHT22;64127;51.488;5.462;2022-12-28T17:43:59;10.90;99.90
75430;DHT22;64127;51.488;5.462;2022-12-28T17:46:31;10.90;99.90
75430;DHT22;64127;51.488;5.462;2022-12-28T17:49:13;10.90;99.90
75430;DHT22;64127;51.488;5.462;2022-12-28T17:51:47;10.80;99.90
75430;DHT22;64127;51.488;5.462;2022-12-28T17:54:19;10.80;99.90
75430;DHT22;64127;51.488;5.462;2022-12-28T17:56:51;10.80;99.90